Time;durP1;ratioP1;P1;durP2;ratioP2;P2;SDS_P1;SDS_P2;PMS_P1;PMS_P2;Temp;Humidity;BMP_temperature;BMP_pressure;BME280_temperature;BME280_humidity;BME280_pressure;Samples;Min_cycle;Max_cycle;Signal;HPM_P1;HPM_P2
2023/07/10 00:00:57;;;;;;;12.65;4.43;;;26.90;99.90;;;;;;5113779;28;20063;-81
2023/07/10 00:03:23;;;;;;;12.50;4.00;;;26.90;99.90;;;;;;5113483;28;20073;-80
2023/07/10 00:05:50;;;;;;;9.30;4.13;;;26.90;99.90;;;;;;5113600;28;20050;-81
2023/07/10 00:08:16;;;;;;;8.35;3.53;;;26.90;99.90;;;;;;5113196;28;20044;-80
2023/07/10 00:10:42;;;;;;;11.15;3.50;;;26.80;99.90;;;;;;5113190;28;20024;-81
2023/07/10 00:13:11;;;;;;;13.85;4.03;;;26.70;99.90;;;;;;5094869;28;20035;-81
2023/07/10 00:15:37;;;;;;;12.80;4.03;;;26.60;99.90;;;;;;5113600;28;20020;-81
2023/07/10 00:18:15;;;;;;;8.20;3.85;;;26.50;99.90;;;;;;5113139;28;20026;-80
2023/07/10 00:20:42;;;;;;;10.40;3.60;;;26.30;99.90;;;;;;5078215;28;20043;-80
2023/07/10 00:23:08;;;;;;;12.20;3.80;;;26.30;99.90;;;;;;5113436;28;20059;-81
2023/07/10 00:25:35;;;;;;;7.72;3.80;;;26.20;99.90;;;;;;5113188;28;20114;-82
2023/07/10 00:28:01;;;;;;;7.45;3.35;;;26.20;99.90;;;;;;5094692;28;20088;-82
2023/07/10 00:30:27;;;;;;;10.45;4.07;;;26.30;99.90;;;;;;5113489;28;20425;-82
2023/07/10 00:32:54;;;;;;;10.27;3.70;;;26.30;99.90;;;;;;5095853;28;20471;-82
2023/07/10 00:35:21;;;;;;;9.32;3.75;;;26.30;99.90;;;;;;5098560;28;20080;-81
2023/07/10 00:38:01;;;;;;;16.92;4.50;;;26.30;99.90;;;;;;5116753;28;20053;-81
2023/07/10 00:40:34;;;;;;;10.20;3.97;;;26.20;99.90;;;;;;5117183;28;20055;-81
2023/07/10 00:43:22;;;;;;;9.18;3.72;;;26.20;99.90;;;;;;5117365;28;20023;-80
2023/07/10 00:45:50;;;;;;;8.93;4.07;;;26.20;99.90;;;;;;5116729;28;20039;-80
2023/07/10 00:48:40;;;;;;;7.97;3.75;;;26.20;99.90;;;;;;5116561;28;20106;-81
2023/07/10 00:51:20;;;;;;;11.82;3.83;;;26.20;99.90;;;;;;5116982;28;20105;-80
2023/07/10 00:53:48;;;;;;;12.27;3.78;;;26.20;99.90;;;;;;5098116;28;20387;-81
2023/07/10 00:56:17;;;;;;;13.10;3.70;;;26.30;99.90;;;;;;5117226;28;20031;-80
2023/07/10 00:58:46;;;;;;;8.52;3.70;;;26.30;99.90;;;;;;5116386;28;20016;-80
2023/07/10 01:01:14;;;;;;;12.48;4.03;;;26.30;99.90;;;;;;5116174;28;20058;-81
2023/07/10 01:03:41;;;;;;;20.65;4.22;;;26.30;99.90;;;;;;5116981;28;20025;-80
2023/07/10 01:06:10;;;;;;;7.95;4.13;;;26.30;99.90;;;;;;5116740;28;20347;-81
2023/07/10 01:08:40;;;;;;;7.90;3.80;;;26.30;99.90;;;;;;5097896;28;20128;-81
2023/07/10 01:11:06;;;;;;;8.25;3.80;;;26.30;99.90;;;;;;5098123;28;20035;-80
2023/07/10 01:13:34;;;;;;;9.85;4.03;;;26.20;99.90;;;;;;5116139;28;20095;-80
2023/07/10 01:16:01;;;;;;;15.10;4.00;;;26.20;99.90;;;;;;5097712;28;20055;-80
2023/07/10 01:18:26;;;;;;;;;;;26.20;99.90;;;;;;5116681;28;20027;-81
2023/07/10 01:21:19;;;;;;;;;;;26.20;99.90;;;;;;5098016;28;19990;-81
2023/07/10 01:23:44;;;;;;;;;;;26.20;99.90;;;;;;5033502;28;19905;-81
2023/07/10 01:26:10;;;;;;;;;;;26.30;99.90;;;;;;5017255;28;20032;-81
2023/07/10 01:28:36;;;;;;;;;;;26.40;99.90;;;;;;5033766;28;19940;-81
2023/07/10 01:31:05;;;;;;;;;;;26.40;99.90;;;;;;5033935;28;19913;-81
2023/07/10 01:33:49;;;;;;;;;;;26.40;99.90;;;;;;5033381;28;20383;-81
2023/07/10 01:36:16;;;;;;;;;;;26.40;99.90;;;;;;5033466;28;19905;-81
2023/07/10 01:38:44;;;;;;;;;;;26.50;99.90;;;;;;5033168;28;19905;-82
2023/07/10 01:41:23;;;;;;;;;;;26.50;99.90;;;;;;5016692;28;20379;-79
2023/07/10 01:43:49;;;;;;;;;;;26.60;99.90;;;;;;5033302;28;19905;-81
2023/07/10 01:46:19;;;;;;;;;;;26.60;99.90;;;;;;5033354;28;19905;-79
2023/07/10 01:48:45;;;;;;;;;;;26.60;99.90;;;;;;5033786;28;19917;-81
2023/07/10 01:51:11;;;;;;;;;;;26.60;99.90;;;;;;5033230;28;20009;-82
2023/07/10 01:53:37;;;;;;;;;;;26.60;99.90;;;;;;5033256;28;19904;-81
2023/07/10 01:56:03;;;;;;;;;;;26.60;99.90;;;;;;5016714;28;19975;-80
2023/07/10 01:58:30;;;;;;;;;;;26.50;99.90;;;;;;5033078;28;19905;-82
2023/07/10 02:00:56;;;;;;;;;;;26.60;99.90;;;;;;5074794;28;19920;-81
2023/07/10 02:03:22;;;;;;;;;;;26.50;99.90;;;;;;5095854;28;19904;-81
2023/07/10 02:05:48;;;;;;;;;;;26.50;99.90;;;;;;5095203;28;19908;-81
2023/07/10 02:08:13;;;;;;;;;;;26.50;99.90;;;;;;5076905;28;20267;-81
2023/07/10 02:10:39;;;;;;;;;;;26.50;99.90;;;;;;5095598;28;20358;-80
2023/07/10 02:13:05;;;;;;;;;;;26.60;99.90;;;;;;5095404;28;19958;-81
2023/07/10 02:15:31;;;;;;;;;;;26.60;99.90;;;;;;5095494;28;19958;-81
2023/07/10 02:17:57;;;;;;;;;;;26.60;99.90;;;;;;5095205;28;20264;-80
2023/07/10 02:20:24;;;;;;;;;;;26.60;99.90;;;;;;5095163;28;19911;-81
2023/07/10 02:22:50;;;;;;;;;;;26.60;99.90;;;;;;5115170;28;19904;-80
2023/07/10 02:25:16;;;;;;;;;;;26.60;99.90;;;;;;5115569;28;20348;-80
2023/07/10 02:27:42;;;;;;;;;;;26.60;99.90;;;;;;5115138;28;19911;-80
2023/07/10 02:30:08;;;;;;;;;;;26.60;99.90;;;;;;5115149;28;19908;-81
2023/07/10 02:32:34;;;;;;;;;;;26.60;99.90;;;;;;5115106;28;19910;-81
2023/07/10 02:35:00;;;;;;;;;;;26.60;99.90;;;;;;5115541;28;19997;-81
2023/07/10 02:37:25;;;;;;;;;;;26.60;99.90;;;;;;5115146;28;19912;-80
2023/07/10 02:39:51;;;;;;;;;;;26.70;99.90;;;;;;5115266;28;19969;-81
2023/07/10 02:42:17;;;;;;;;;;;26.70;99.90;;;;;;5115318;28;20327;-81
2023/07/10 02:44:43;;;;;;;;;;;26.60;99.90;;;;;;5114838;28;19903;-80
2023/07/10 02:47:08;;;;;;;;;;;26.70;99.90;;;;;;5115060;28;19904;-81
2023/07/10 02:49:34;;;;;;;;;;;26.70;99.90;;;;;;5114759;28;20002;-81
2023/07/10 02:52:00;;;;;;;;;;;26.70;99.90;;;;;;5114539;28;19912;-80
2023/07/10 02:54:26;;;;;;;;;;;26.70;99.90;;;;;;5114692;28;19910;-80
2023/07/10 02:56:52;;;;;;;;;;;26.70;99.90;;;;;;5113972;28;19903;-81
2023/07/10 02:59:17;;;;;;;;;;;26.70;99.90;;;;;;5096377;28;19910;-80
2023/07/10 03:01:45;;;;;;;;;;;26.70;99.90;;;;;;5114441;28;19915;-80
2023/07/10 03:04:11;;;;;;;;;;;26.70;99.90;;;;;;5114634;28;19904;-81
2023/07/10 03:06:37;;;;;;;;;;;26.70;99.90;;;;;;5114322;28;19934;-80
2023/07/10 03:09:04;;;;;;;;;;;26.60;99.90;;;;;;5114310;28;19910;-81
2023/07/10 03:11:29;;;;;;;;;;;26.70;99.90;;;;;;5114402;28;19922;-82
2023/07/10 03:13:55;;;;;;;;;;;26.60;99.90;;;;;;5114361;28;19903;-82
2023/07/10 03:16:21;;;;;;;;;;;26.60;99.90;;;;;;5114374;28;20007;-81
2023/07/10 03:18:47;;;;;;;;;;;26.60;99.90;;;;;;5114507;28;19982;-81
2023/07/10 03:21:13;;;;;;;;;;;26.60;99.90;;;;;;5114502;28;20304;-80
2023/07/10 03:23:39;;;;;;;;;;;26.60;99.90;;;;;;5114579;28;19908;-80
2023/07/10 03:26:04;;;;;;;;;;;26.50;99.90;;;;;;5114972;28;19927;-80
2023/07/10 03:28:34;;;;;;;;;;;26.40;99.90;;;;;;5114750;28;20355;-80
2023/07/10 03:31:00;;;;;;;;;;;26.40;99.90;;;;;;5114151;28;19955;-80
2023/07/10 03:33:26;;;;;;;;;;;26.40;99.90;;;;;;5114226;28;19911;-80
2023/07/10 03:35:59;;;;;;;;;;;26.30;99.90;;;;;;5114111;28;19904;-81
2023/07/10 03:38:24;;;;;;;;;;;26.30;99.90;;;;;;5095532;28;20367;-80
2023/07/10 03:40:55;;;;;;;;;;;26.30;99.90;;;;;;5114248;28;19911;-81
2023/07/10 03:43:21;;;;;;;;;;;26.40;99.90;;;;;;5113992;28;19929;-81
2023/07/10 03:45:47;;;;;;;;;;;26.40;99.90;;;;;;5114155;28;19951;-81
2023/07/10 03:48:13;;;;;;;;;;;26.30;99.90;;;;;;5113897;28;19943;-81
2023/07/10 03:50:39;;;;;;;;;;;26.20;99.90;;;;;;5113835;28;19919;-81
2023/07/10 03:53:05;;;;;;;;;;;26.10;99.90;;;;;;5113913;28;20372;-81
2023/07/10 03:55:31;;;;;;;;;;;26.10;99.90;;;;;;5113877;28;19948;-81
2023/07/10 03:57:57;;;;;;;;;;;26.10;99.90;;;;;;5095510;28;20267;-81
2023/07/10 04:00:23;;;;;;;;;;;25.90;99.90;;;;;;5113546;28;19908;-81
2023/07/10 04:02:49;;;;;;;;;;;25.90;99.90;;;;;;5095418;28;19922;-81
2023/07/10 04:05:14;;;;;;;;;;;25.90;99.90;;;;;;5113774;28;20360;-81
2023/07/10 04:07:41;;;;;;;;;;;25.80;99.90;;;;;;5116493;28;20003;-80
2023/07/10 04:10:07;;;;;;;;;;;25.80;99.90;;;;;;5118178;28;19904;-81
2023/07/10 04:12:32;;;;;;;;;;;25.80;99.90;;;;;;5117872;28;19946;-81
2023/07/10 04:14:58;;;;;;;;;;;25.70;99.90;;;;;;5099411;28;19907;-81
2023/07/10 04:17:24;;;;;;;;;;;25.70;99.90;;;;;;5117764;28;19910;-81
2023/07/10 04:19:50;;;;;;;;;;;25.60;99.90;;;;;;5117714;28;19953;-82
2023/07/10 04:22:16;;;;;;;;;;;25.60;99.90;;;;;;5117717;28;19994;-80
2023/07/10 04:24:42;;;;;;;;;;;25.60;99.90;;;;;;5099247;28;19903;-81
2023/07/10 04:27:08;;;;;;;;;;;25.70;99.90;;;;;;5099199;28;19904;-81
2023/07/10 04:29:34;;;;;;;;;;;25.80;99.90;;;;;;5117516;28;19914;-80
2023/07/10 04:32:00;;;;;;;;;;;25.90;99.90;;;;;;5117994;28;19911;-81
2023/07/10 04:34:26;;;;;;;;;;;26.00;99.90;;;;;;5117698;28;19964;-81
2023/07/10 04:36:52;;;;;;;;;;;26.00;99.90;;;;;;5117393;28;19903;-80
2023/07/10 04:39:18;;;;;;;;;;;26.10;99.90;;;;;;5117177;28;19904;-81
2023/07/10 04:41:44;;;;;;;;;;;26.20;99.90;;;;;;5117344;28;19911;-80
2023/07/10 04:44:10;;;;;;;;;;;26.20;99.90;;;;;;5117188;28;19903;-81
2023/07/10 04:46:36;;;;;;;;;;;26.30;99.90;;;;;;5117147;28;19907;-81
2023/07/10 04:49:02;;;;;;;;;;;26.30;99.90;;;;;;5117544;28;19904;-81
2023/07/10 04:51:28;;;;;;;;;;;26.50;99.90;;;;;;5116846;28;20016;-80
2023/07/10 04:53:53;;;;;;;;;;;26.60;99.90;;;;;;5116904;28;19904;-82
2023/07/10 04:56:19;;;;;;;;;;;26.60;99.90;;;;;;5117467;28;20216;-80
2023/07/10 04:58:47;;;;;;;;;;;26.70;99.90;;;;;;5116936;28;20311;-80
2023/07/10 05:01:12;;;;;;;;;;;26.80;99.90;;;;;;5116647;28;20003;-81
2023/07/10 05:03:38;;;;;;;;;;;26.90;99.90;;;;;;5098414;28;19931;-81
2023/07/10 05:06:04;;;;;;;;;;;27.20;99.90;;;;;;5117007;28;19951;-80
2023/07/10 05:08:30;;;;;;;;;;;27.50;99.90;;;;;;5116560;28;20446;-80
2023/07/10 05:10:56;;;;;;;;;;;28.00;99.90;;;;;;5116515;28;19969;-81
2023/07/10 05:13:23;;;;;;;;;;;28.20;99.90;;;;;;5116444;28;20258;-80
2023/07/10 05:15:50;;;;;;;;;;;28.50;99.90;;;;;;5116501;28;20323;-80
2023/07/10 05:18:15;;;;;;;;;;;28.80;99.90;;;;;;5115796;28;19954;-80
2023/07/10 05:20:45;;;;;;;;;;;29.20;99.90;;;;;;5097963;28;19908;-80
2023/07/10 05:23:11;;;;;;;;;;;29.50;99.90;;;;;;5116199;28;19928;-80
2023/07/10 05:25:37;;;;;;;;;;;29.90;99.90;;;;;;5098109;28;19953;-80
2023/07/10 05:28:04;;;;;;;;;;;30.10;99.90;;;;;;5116400;28;19911;-80
2023/07/10 05:30:29;;;;;;;;;;;30.40;99.90;;;;;;5097623;28;19912;-80
2023/07/10 05:32:55;;;;;;;;;;;30.60;99.90;;;;;;5115716;28;19933;-80
2023/07/10 05:35:22;;;;;;;;;;;31.00;99.90;;;;;;5115776;28;19985;-79
2023/07/10 05:37:48;;;;;;;;;;;31.40;99.90;;;;;;5115478;28;19963;-81
2023/07/10 05:40:14;;;;;;;;;;;31.70;99.90;;;;;;5115738;28;19904;-80
2023/07/10 05:42:39;;;;;;;;;;;31.90;99.90;;;;;;5115777;28;20312;-79
2023/07/10 05:45:06;;;;;;;;;;;32.40;99.90;;;;;;5116482;28;20351;-80
2023/07/10 05:47:31;;;;;;;;;;;33.00;99.90;;;;;;5116080;28;19908;-79
2023/07/10 05:49:57;;;;;;;;;;;33.10;99.90;;;;;;5115723;28;20287;-80
2023/07/10 05:52:23;;;;;;;;;;;33.30;99.90;;;;;;5115483;28;19964;-80
2023/07/10 05:54:49;;;;;;;;;;;33.50;99.90;;;;;;5115450;28;19914;-80
2023/07/10 05:57:15;;;;;;;;;;;34.20;99.90;;;;;;5097544;28;19903;-80
2023/07/10 05:59:41;;;;;;;;;;;34.50;99.90;;;;;;5116339;28;19910;-80
2023/07/10 06:02:10;;;;;;;;;;;34.60;99.90;;;;;;5115555;28;20299;-81
2023/07/10 06:04:36;;;;;;;;;;;34.20;99.90;;;;;;5115623;28;20000;-81
2023/07/10 06:07:02;;;;;;;;;;;34.50;99.90;;;;;;5115491;28;19949;-80
2023/07/10 06:09:28;;;;;;;;;;;35.80;99.90;;;;;;5116645;28;19903;-80
2023/07/10 06:11:54;;;;;;;;;;;36.30;99.90;;;;;;5117262;28;19919;-80
2023/07/10 06:14:19;;;;;;;;;;;36.80;98.90;;;;;;5115296;28;20427;-81
2023/07/10 06:16:45;;;;;;;;;;;38.00;97.70;;;;;;5115399;28;19965;-80
2023/07/10 06:19:11;;;;;;;;;;;39.20;96.20;;;;;;5096360;28;19910;-82
2023/07/10 06:21:37;;;;;;;;;;;38.40;94.80;;;;;;5115288;28;19930;-81
2023/07/10 06:24:03;;;;;;;;;;;37.70;96.00;;;;;;5115134;28;19904;-81
2023/07/10 06:26:29;;;;;;;;;;;38.10;95.10;;;;;;5096601;28;19908;-80
2023/07/10 06:28:55;;;;;;;;;;;38.00;94.60;;;;;;5115339;28;20285;-80
2023/07/10 06:31:21;;;;;;;;;;;38.20;94.30;;;;;;5113633;28;19912;-81
2023/07/10 06:33:46;;;;;;;;;;;37.70;93.80;;;;;;5114901;28;19942;-80
2023/07/10 06:36:12;;;;;;;;;;;38.00;93.00;;;;;;5115195;28;20410;-81
2023/07/10 06:38:38;;;;;;;;;;;38.60;92.80;;;;;;5114543;28;19982;-81
2023/07/10 06:41:07;;;;;;;;;;;39.90;91.40;;;;;;5114560;28;20355;-81
2023/07/10 06:43:34;;;;;;;;;;;40.60;92.30;;;;;;5114604;28;19937;-80
2023/07/10 06:46:00;;;;;;;;;;;40.90;92.50;;;;;;5114856;28;19931;-80
2023/07/10 06:48:26;;;;;;;;;;;40.30;92.90;;;;;;5114305;28;19982;-81
2023/07/10 06:50:53;;;;;;;;;;;40.60;92.80;;;;;;5114805;28;20428;-81
2023/07/10 06:53:19;;;;;;;;;;;40.30;92.20;;;;;;5114838;28;19934;-81
2023/07/10 06:55:50;;;;;;;;;;;40.10;92.70;;;;;;5114492;28;20014;-81
2023/07/10 06:58:16;;;;;;;;;;;40.30;91.70;;;;;;5114964;28;19951;-81
2023/07/10 07:00:42;;;;;;;;;;;41.50;91.20;;;;;;5114103;28;20027;-81
2023/07/10 07:03:09;;;;;;;;;;;42.10;90.40;;;;;;5115434;28;19904;-81
2023/07/10 07:05:35;;;;;;;;;;;42.90;88.60;;;;;;5114569;28;19904;-80
2023/07/10 07:08:01;;;;;;;;;;;42.90;87.10;;;;;;5114300;28;20420;-81
2023/07/10 07:10:26;;;;;;;;;;;43.20;85.90;;;;;;5114202;28;19903;-81
2023/07/10 07:12:52;;;;;;;;;;;42.80;84.60;;;;;;5114536;28;19937;-81
2023/07/10 07:15:18;;;;;;;;;;;42.40;83.80;;;;;;5114425;28;19960;-82
2023/07/10 07:17:44;;;;;;;;;;;42.00;85.10;;;;;;5114249;28;19951;-81
2023/07/10 07:20:10;;;;;;;;;;;42.10;84.70;;;;;;5114088;28;19912;-83
2023/07/10 07:22:36;;;;;;;;;;;41.40;84.90;;;;;;5113869;28;19908;-81
2023/07/10 07:25:02;;;;;;;;;;;40.70;86.00;;;;;;5113903;28;19911;-82
2023/07/10 07:27:32;;;;;;;;;;;40.50;86.60;;;;;;5114214;28;19904;-81
2023/07/10 07:29:58;;;;;;;;;;;40.40;85.70;;;;;;5114110;28;19911;-83
2023/07/10 07:32:24;;;;;;;;;;;39.80;86.40;;;;;;5114129;28;19911;-81
2023/07/10 07:34:49;;;;;;;;;;;39.60;86.70;;;;;;5114135;28;19914;-81
2023/07/10 07:37:17;;;;;;;;;;;39.50;88.20;;;;;;5113569;28;20012;-82
2023/07/10 07:39:42;;;;;;;;;;;39.60;89.90;;;;;;5129514;27;20380;-81
2023/07/10 07:42:09;;;;;;;;;;;39.20;90.70;;;;;;5113928;28;19903;-81
2023/07/10 07:44:34;;;;;;;;;;;38.80;91.40;;;;;;5113743;28;20026;-81
2023/07/10 07:47:00;;;;;;;;;;;38.60;91.70;;;;;;5114239;28;20362;-82
2023/07/10 07:49:26;;;;;;;;;;;38.60;91.90;;;;;;5113489;28;20279;-82
2023/07/10 07:51:52;;;;;;;;;;;38.50;92.30;;;;;;5113611;28;20421;-82
2023/07/10 07:54:18;;;;;;;;;;;38.30;92.20;;;;;;5113526;28;19939;-81
2023/07/10 07:56:44;;;;;;;;;;;38.20;92.30;;;;;;5113514;28;19948;-81
2023/07/10 07:59:10;;;;;;;;;;;37.60;92.40;;;;;;5113494;28;19904;-81
2023/07/10 08:01:36;;;;;;;;;;;37.60;92.70;;;;;;5113422;28;19920;-81
2023/07/10 08:04:04;;;;;;;;;;;37.90;92.80;;;;;;5113424;28;19920;-81
2023/07/10 08:06:32;;;;;;;;;;;38.20;92.70;;;;;;5113606;28;19930;-82
2023/07/10 08:08:58;;;;;;;;;;;37.70;92.40;;;;;;5113648;28;19903;-81
2023/07/10 08:11:24;;;;;;;;;;;37.40;92.90;;;;;;5113271;28;20019;-82
2023/07/10 08:13:50;;;;;;;;;;;37.50;93.00;;;;;;5113321;28;20335;-82
2023/07/10 08:16:16;;;;;;;;;;;37.90;92.70;;;;;;5113372;28;19946;-82
2023/07/10 08:18:42;;;;;;;;;;;38.00;92.60;;;;;;5113618;28;19904;-81
2023/07/10 08:21:09;;;;;;;;;;;37.50;92.90;;;;;;5095058;28;20007;-81
2023/07/10 08:23:35;;;;;;;;;;;37.30;93.30;;;;;;5094856;28;19908;-82
2023/07/10 08:26:01;;;;;;;;;;;37.60;93.30;;;;;;5113456;28;19903;-82
2023/07/10 08:28:27;;;;;;;;;;;37.10;93.90;;;;;;5113338;28;19903;-81
2023/07/10 08:30:53;;;;;;;;;;;37.10;94.70;;;;;;5113711;28;19915;-81
2023/07/10 08:33:19;;;;;;;;;;;37.10;95.10;;;;;;5113341;28;20414;-81
2023/07/10 08:35:54;;;;;;;;;;;36.90;95.90;;;;;;5113550;28;19992;-82
2023/07/10 08:38:19;;;;;;;;;;;37.10;96.20;;;;;;5113221;28;20359;-80
2023/07/10 08:40:47;;;;;;;;;;;36.90;96.40;;;;;;5113421;28;19904;-80
2023/07/10 08:43:16;;;;;;;;;;;37.10;96.60;;;;;;5112697;28;19903;-80
2023/07/10 08:45:42;;;;;;;;;;;37.20;96.90;;;;;;5113235;28;20349;-80
2023/07/10 08:48:31;;;;;;;;;;;37.40;96.80;;;;;;5113212;28;19903;-80
2023/07/10 08:51:01;;;;;;;;;;;37.20;97.00;;;;;;5101956;28;19918;-80
2023/07/10 08:53:28;;;;;;;;;;;37.20;97.20;;;;;;5095064;28;19903;-82
2023/07/10 08:56:09;;;;;;;;;;;37.10;97.20;;;;;;5117069;28;19956;-80
2023/07/10 08:58:36;;;;;;;;;;;36.70;98.00;;;;;;5117217;28;19904;-81
2023/07/10 09:01:04;;;;;;;;;;;36.50;98.60;;;;;;5097877;28;19916;-80
2023/07/10 09:03:30;;;;;;;;;;;36.40;98.90;;;;;;5116507;28;19908;-81
2023/07/10 09:05:57;;;;;;;;;;;36.30;99.10;;;;;;5117042;28;19903;-80
2023/07/10 09:08:24;;;;;;;;;;;36.30;99.00;;;;;;5116216;28;19911;-80
2023/07/10 09:10:51;;;;;;;;;;;36.20;99.10;;;;;;5116150;28;20031;-80
2023/07/10 09:13:18;;;;;;;;;;;36.40;99.50;;;;;;5116187;28;19904;-80
2023/07/10 09:15:49;;;;;;;;;;;36.50;99.30;;;;;;5116132;28;19903;-81
2023/07/10 09:18:20;;;;;;;;;;;36.40;99.40;;;;;;5116698;28;19911;-81
2023/07/10 09:20:49;;;;;;;;;;;36.00;99.90;;;;;;5115944;28;19964;-81
2023/07/10 09:23:22;;;;;;;;;;;35.90;99.90;;;;;;5115591;28;19907;-81
2023/07/10 09:25:53;;;;;;;;;;;36.00;99.90;;;;;;5116211;28;19904;-82
2023/07/10 09:28:19;;;;;;;;;;;35.60;99.90;;;;;;5116391;28;19972;-79
2023/07/10 09:30:51;;;;;;;;;;;35.10;99.90;;;;;;5115732;28;20364;-81
2023/07/10 09:33:16;;;;;;;;;;;34.90;99.90;;;;;;5115893;28;19908;-81
2023/07/10 09:35:43;;;;;;;;;;;34.90;99.90;;;;;;5116406;28;20322;-81
2023/07/10 09:38:10;;;;;;;;;;;34.70;99.90;;;;;;5097410;28;19907;-81
2023/07/10 09:40:37;;;;;;;;;;;34.60;99.90;;;;;;5115677;28;20367;-80
2023/07/10 09:43:04;;;;;;;;;;;34.60;99.90;;;;;;5115695;28;19904;-81
2023/07/10 09:45:42;;;;;;;;;;;34.40;99.90;;;;;;5116289;28;20002;-81
2023/07/10 09:48:13;;;;;;;;;;;34.10;99.90;;;;;;5115674;28;19903;-82
2023/07/10 09:50:38;;;;;;;;;;;34.50;99.90;;;;;;5116076;28;19907;-82
2023/07/10 09:53:04;;;;;;;;;;;34.50;99.90;;;;;;5115591;28;19908;-82
2023/07/10 09:55:30;;;;;;;;;;;34.80;99.90;;;;;;5115349;28;19910;-81
2023/07/10 09:57:57;;;;;;;;;;;34.70;99.90;;;;;;5115494;28;19964;-81
2023/07/10 10:00:23;;;;;;;;;;;34.50;99.90;;;;;;5115352;28;19903;-82
2023/07/10 10:03:08;;;;;;;;;;;34.60;99.90;;;;;;5115913;28;19922;-80
2023/07/10 10:05:39;;;;;;;;;;;34.30;99.90;;;;;;5115444;28;19951;-80
2023/07/10 10:08:18;;;;;;;;;;;34.30;99.90;;;;;;5097076;28;19957;-82
2023/07/10 10:10:44;;;;;;;;;;;34.00;99.90;;;;;;5115471;28;19968;-81
2023/07/10 10:13:21;;;;;;;;;;;34.40;99.90;;;;;;5115481;28;19908;-81
2023/07/10 10:15:50;;;;;;;;;;;34.20;99.90;;;;;;5115680;28;19904;-83
2023/07/10 10:18:38;;;;;;;;;;;33.70;99.90;;;;;;5114997;28;19953;-80
2023/07/10 10:21:04;;;;;;;;;;;33.60;99.90;;;;;;5115307;28;19927;-80
2023/07/10 10:23:32;;;;;;;;;;;33.50;99.90;;;;;;5114811;28;19976;-80
2023/07/10 10:26:16;;;;;;;;;;;33.60;99.90;;;;;;5114896;28;20358;-81
2023/07/10 10:29:02;;;;;;;;;;;33.60;99.90;;;;;;5115351;28;19915;-80
2023/07/10 10:31:32;;;;;;;;;;;33.60;99.90;;;;;;5114739;28;19912;-80
2023/07/10 10:34:01;;;;;;;;;;;33.60;99.90;;;;;;5114722;28;20316;-81
2023/07/10 10:36:30;;;;;;;;;;;33.60;99.90;;;;;;5115266;28;20007;-80
2023/07/10 10:39:12;;;;;;;;;;;33.60;99.90;;;;;;5114400;28;19904;-81
2023/07/10 10:41:46;;;;;;;;;;;33.80;99.90;;;;;;5096275;28;19922;-81
2023/07/10 10:44:15;;;;;;;;;;;33.70;99.90;;;;;;5096078;28;20279;-80
2023/07/10 10:46:52;;;;;;;;;;;33.40;99.90;;;;;;5114904;28;20370;-81
2023/07/10 10:49:36;;;;;;;;;;;33.20;99.90;;;;;;5114828;28;19904;-81
2023/07/10 10:52:02;;;;;;;;;;;33.40;99.90;;;;;;5114302;28;19956;-81
2023/07/10 10:54:28;;;;;;;;;;;33.60;99.90;;;;;;5114212;28;19903;-80
2023/07/10 10:57:08;;;;;;;;;;;33.40;99.90;;;;;;5114763;28;19903;-81
2023/07/10 10:59:47;;;;;;;;;;;33.70;99.90;;;;;;5114439;28;19927;-80
2023/07/10 11:02:27;;;;;;;;;;;33.40;99.90;;;;;;5114224;28;19938;-82
2023/07/10 11:05:02;;;;;;;;;;;33.10;99.90;;;;;;5114099;28;20334;-81
2023/07/10 11:07:31;;;;;;;;;;;33.30;99.90;;;;;;5114697;28;19910;-81
2023/07/10 11:10:01;;;;;;;;;;;33.50;99.90;;;;;;5114214;28;19983;-80
2023/07/10 11:12:29;;;;;;;;;;;33.50;99.90;;;;;;5114047;28;20006;-81
2023/07/10 11:14:56;;;;;;;;;;;33.00;99.90;;;;;;5114084;28;19903;-80
2023/07/10 11:17:23;;;;;;;;;;;33.50;99.90;;;;;;5113331;28;19903;-81
2023/07/10 11:19:50;;;;;;;;;;;33.50;99.90;;;;;;5113932;28;19910;-81
2023/07/10 11:22:26;;;;;;;;;;;33.70;99.90;;;;;;5114038;28;20366;-81
2023/07/10 11:24:52;;;;;;;;;;;34.10;99.90;;;;;;5113680;28;19904;-80
2023/07/10 11:27:41;;;;;;;;;;;33.80;99.90;;;;;;5113938;28;20334;-80
2023/07/10 11:30:14;;;;;;;;;;;33.80;99.90;;;;;;5113721;28;19904;-81
2023/07/10 11:33:02;;;;;;;;;;;33.80;99.90;;;;;;5114154;28;20382;-81
2023/07/10 11:35:30;;;;;;;;;;;33.70;99.90;;;;;;5095450;28;20275;-83
2023/07/10 11:38:01;;;;;;;;;;;33.60;99.90;;;;;;5113687;28;20364;-81
2023/07/10 11:40:27;;;;;;;;;;;33.60;99.90;;;;;;5113746;28;19911;-81
2023/07/10 11:43:19;;;;;;;;;;;33.70;99.90;;;;;;5114173;28;19912;-80
2023/07/10 11:45:50;;;;;;;;;;;33.60;99.90;;;;;;5094711;28;19904;-81
2023/07/10 11:48:34;;;;;;;;;;;33.60;99.90;;;;;;5113592;28;19907;-82
2023/07/10 11:51:01;;;;;;;;;;;33.70;99.90;;;;;;5113773;28;19962;-80
2023/07/10 11:53:27;;;;;;;;;;;33.80;99.90;;;;;;5113448;28;19908;-80
2023/07/10 11:56:04;;;;;;;;;;;33.90;99.90;;;;;;5113765;28;20277;-82
2023/07/10 11:58:33;;;;;;;;;;;33.80;99.90;;;;;;5113344;28;20359;-82
2023/07/10 12:01:20;;;;;;;;;;;33.20;99.90;;;;;;5094886;28;20316;-81
2023/07/10 12:03:46;;;;;;;;;;;33.00;99.90;;;;;;5113504;28;19907;-81
2023/07/10 12:06:19;;;;;;;;;;;33.20;99.90;;;;;;5113403;28;19903;-81
2023/07/10 12:08:46;;;;;;;;;;;33.30;99.90;;;;;;5113662;28;20002;-80
2023/07/10 12:11:30;;;;;;;;;;;33.10;99.90;;;;;;5113232;28;20377;-80
2023/07/10 12:14:10;;;;;;;;;;;33.20;99.90;;;;;;5113472;28;19909;-80
2023/07/10 12:16:40;;;;;;;;;;;33.30;99.90;;;;;;5095042;28;19904;-80
2023/07/10 12:19:14;;;;;;;;;;;33.30;99.90;;;;;;5113825;28;20343;-80
2023/07/10 12:21:40;;;;;;;;;;;33.50;99.90;;;;;;5113226;28;19907;-81
2023/07/10 12:24:11;;;;;;;;;;;33.90;99.90;;;;;;5113108;28;19904;-81
2023/07/10 12:26:37;;;;;;;;;;;33.90;99.90;;;;;;5113779;28;19903;-81
2023/07/10 12:29:03;;;;;;;;;;;33.80;99.90;;;;;;5116481;28;19971;-80
2023/07/10 12:31:29;;;;;;;;;;;33.70;99.90;;;;;;5117790;28;19918;-81
2023/07/10 12:33:55;;;;;;;;;;;33.60;99.90;;;;;;5117293;28;19911;-81
2023/07/10 12:36:25;;;;;;;;;;;33.50;99.90;;;;;;5117281;28;20003;-81
2023/07/10 12:38:56;;;;;;;;;;;33.60;99.90;;;;;;5116893;28;19903;-81
2023/07/10 12:41:22;;;;;;;;;;;33.30;99.90;;;;;;5117364;28;19910;-80
2023/07/10 12:43:52;;;;;;;;;;;33.20;99.90;;;;;;5117713;28;19990;-81
2023/07/10 12:46:27;;;;;;;;;;;33.10;99.90;;;;;;5116889;28;20422;-82
2023/07/10 12:49:23;;;;;;;;;;;33.40;99.90;;;;;;5117157;28;19987;-81
2023/07/10 12:51:49;;;;;;;;;;;33.60;99.90;;;;;;5099090;28;19912;-81
2023/07/10 12:54:21;;;;;;;;;;;33.50;99.90;;;;;;5116748;28;20352;-81
2023/07/10 12:56:48;;;;;;;;;;;33.60;99.90;;;;;;5099276;28;20297;-81
2023/07/10 12:59:20;;;;;;;;;;;33.40;99.90;;;;;;5116890;28;19904;-81
2023/07/10 13:01:47;;;;;;;;;;;33.40;99.90;;;;;;5116500;28;19923;-81
2023/07/10 13:04:24;;;;;;;;;;;33.50;99.90;;;;;;5117292;28;19911;-80
2023/07/10 13:07:03;;;;;;;;;;;33.40;99.90;;;;;;5116932;28;19904;-80
2023/07/10 13:09:30;;;;;;;;;;;33.50;99.90;;;;;;5097972;28;19914;-80
2023/07/10 13:11:56;;;;;;;;;;;33.40;99.90;;;;;;5116592;28;20371;-81
2023/07/10 13:14:26;;;;;;;;;;;33.70;99.90;;;;;;5116289;28;19938;-80
2023/07/10 13:16:52;;;;;;;;;;;33.90;99.90;;;;;;5116621;28;19904;-80
2023/07/10 13:19:18;;;;;;;;;;;34.00;99.90;;;;;;5116270;28;19904;-81
2023/07/10 13:21:44;;;;;;;;;;;33.90;99.90;;;;;;5097784;28;19986;-80
2023/07/10 13:24:09;;;;;;;;;;;33.80;99.90;;;;;;5116090;28;19907;-81
2023/07/10 13:26:35;;;;;;;;;;;33.90;99.90;;;;;;5097842;28;19926;-80
2023/07/10 13:29:01;;;;;;;;;;;34.00;99.90;;;;;;5116139;28;19904;-81
2023/07/10 13:31:31;;;;;;;;;;;34.00;99.90;;;;;;5116036;28;20347;-80
2023/07/10 13:33:57;;;;;;;;;;;33.90;99.90;;;;;;5116131;28;19911;-80
2023/07/10 13:36:26;;;;;;;;;;;34.00;99.90;;;;;;5116011;28;19903;-81
2023/07/10 13:38:52;;;;;;;;;;;33.90;99.90;;;;;;5116166;28;19903;-80
2023/07/10 13:41:19;;;;;;;;;;;34.00;99.90;;;;;;5116078;28;19908;-80
2023/07/10 13:43:46;;;;;;;;;;;33.70;99.90;;;;;;5115750;28;19911;-81
2023/07/10 13:46:32;;;;;;;;;;;33.50;99.90;;;;;;5116148;28;19903;-81
2023/07/10 13:48:59;;;;;;;;;;;33.60;99.90;;;;;;5115388;28;19903;-81
2023/07/10 13:51:26;;;;;;;;;;;33.50;99.90;;;;;;5115683;28;19994;-81
2023/07/10 13:53:52;;;;;;;;;;;33.90;99.90;;;;;;5116247;28;20370;-82
2023/07/10 13:56:23;;;;;;;;;;;33.90;99.90;;;;;;5116039;28;19904;-81
2023/07/10 13:58:50;;;;;;;;;;;33.90;99.90;;;;;;5115655;28;19904;-81
2023/07/10 14:01:15;;;;;;;;;;;34.00;99.90;;;;;;5115621;28;19915;-82
2023/07/10 14:03:42;;;;;;;;;;;34.00;99.90;;;;;;5115638;28;20021;-81
2023/07/10 14:06:25;;;;;;;;;;;33.90;99.90;;;;;;5115711;28;19982;-80
2023/07/10 14:08:52;;;;;;;;;;;33.40;99.90;;;;;;5115330;28;20002;-81
2023/07/10 14:11:18;;;;;;;;;;;33.60;99.90;;;;;;5115425;28;19911;-81
2023/07/10 14:13:44;;;;;;;;;;;33.80;99.90;;;;;;5097027;28;20385;-82